createdAt,value
2018-12-15T00:01:11.729Z,90.54
2018-12-15T00:03:39.232Z,90.41
2018-12-15T00:06:06.705Z,91.08
2018-12-15T00:08:34.110Z,90.33
2018-12-15T00:11:01.512Z,91.21
2018-12-15T00:13:28.891Z,92.30
2018-12-15T00:15:56.302Z,92.24
2018-12-15T00:18:23.694Z,91.77
2018-12-15T00:20:51.097Z,92.21
2018-12-15T00:23:18.470Z,91.48
2018-12-15T00:25:45.869Z,92.23
2018-12-15T00:28:13.257Z,91.54
2018-12-15T00:30:40.641Z,91.41
2018-12-15T00:33:08.033Z,91.76
2018-12-15T00:35:35.423Z,91.29
2018-12-15T00:38:02.831Z,91.59
2018-12-15T00:40:30.210Z,92.36
2018-12-15T00:42:57.597Z,92.14
2018-12-15T00:45:25.070Z,92.93
2018-12-15T00:47:52.467Z,92.99
2018-12-15T00:50:19.852Z,91.76
2018-12-15T00:52:47.238Z,92.66
2018-12-15T00:55:14.707Z,91.64
2018-12-15T00:57:42.173Z,91.58
2018-12-15T01:00:09.576Z,92.82
2018-12-15T01:02:36.967Z,92.37
2018-12-15T01:05:04.550Z,91.80
2018-12-15T01:07:32.020Z,91.69
2018-12-15T01:09:59.412Z,92.24
2018-12-15T01:12:26.869Z,93.35
2018-12-15T01:14:54.259Z,93.42
2018-12-15T01:17:21.647Z,93.48
2018-12-15T01:19:49.058Z,92.57
2018-12-15T01:22:16.437Z,92.65
2018-12-15T01:24:43.833Z,92.33
2018-12-15T01:27:11.302Z,92.71
2018-12-15T01:29:38.710Z,93.25
2018-12-15T01:32:06.100Z,93.26
2018-12-15T01:34:33.492Z,92.33
2018-12-15T01:37:00.878Z,92.62
2018-12-15T01:39:28.269Z,91.83
2018-12-15T01:41:55.656Z,92.44
2018-12-15T01:44:23.049Z,92.50
2018-12-15T01:46:50.433Z,92.98
2018-12-15T01:49:17.808Z,92.83
2018-12-15T01:51:45.206Z,92.96
2018-12-15T01:54:12.605Z,92.15
2018-12-15T01:56:39.989Z,92.70
2018-12-15T01:59:07.389Z,92.53
2018-12-15T02:01:34.794Z,91.92
2018-12-15T02:04:02.193Z,91.75
2018-12-15T02:06:29.586Z,92.37
2018-12-15T02:08:56.974Z,92.29
2018-12-15T02:11:24.367Z,92.01
2018-12-15T02:13:51.761Z,92.26
2018-12-15T02:16:19.143Z,92.44
2018-12-15T02:18:46.538Z,92.40
2018-12-15T02:21:13.926Z,93.21
2018-12-15T02:23:41.774Z,92.37
2018-12-15T02:26:09.176Z,93.33
2018-12-15T02:28:36.592Z,93.44
2018-12-15T02:31:03.978Z,93.28
2018-12-15T02:33:31.361Z,92.90
2018-12-15T02:35:58.754Z,93.40
2018-12-15T02:38:26.241Z,93.74
2018-12-15T02:40:53.703Z,93.55
2018-12-15T02:43:21.173Z,94.43
2018-12-15T02:45:48.582Z,93.22
2018-12-15T02:48:15.966Z,93.18
2018-12-15T02:50:43.362Z,94.50
2018-12-15T02:53:10.749Z,93.25
2018-12-15T02:55:38.127Z,93.14
2018-12-15T02:58:05.531Z,92.08
2018-12-15T03:00:32.998Z,93.10
2018-12-15T03:03:00.383Z,92.09
2018-12-15T03:05:27.795Z,92.42
2018-12-15T03:07:55.186Z,91.91
2018-12-15T03:10:22.572Z,91.40
2018-12-15T03:12:49.966Z,90.82
2018-12-15T03:15:17.342Z,91.26
2018-12-15T03:17:48.842Z,91.45
2018-12-15T03:20:14.125Z,91.95
2018-12-15T03:22:41.518Z,92.46
2018-12-15T03:25:08.917Z,92.76
2018-12-15T03:27:36.324Z,91.89
2018-12-15T03:30:04.936Z,91.43
2018-12-15T03:32:32.402Z,91.81
2018-12-15T03:34:59.865Z,91.89
2018-12-15T03:37:27.262Z,92.39
2018-12-15T03:39:54.652Z,93.36
2018-12-15T03:42:22.037Z,92.28
2018-12-15T03:44:49.455Z,91.84
2018-12-15T03:47:16.836Z,91.58
2018-12-15T03:49:44.219Z,92.21
2018-12-15T03:52:11.612Z,93.00
2018-12-15T03:54:39.001Z,92.41
2018-12-15T03:57:06.433Z,93.27
2018-12-15T03:59:34.092Z,91.73
2018-12-15T04:02:01.662Z,91.59
2018-12-15T04:04:30.247Z,91.55
2018-12-15T04:06:57.645Z,92.73
2018-12-15T04:09:25.034Z,93.12
2018-12-15T04:11:52.429Z,92.72
2018-12-15T04:14:19.838Z,92.17
2018-12-15T04:16:47.218Z,92.76
2018-12-15T04:19:15.182Z,93.10
2018-12-15T04:21:42.594Z,92.37
2018-12-15T04:24:09.990Z,92.65
2018-12-15T04:26:37.375Z,93.19
2018-12-15T04:29:06.662Z,92.99
2018-12-15T04:31:34.117Z,93.83
2018-12-15T04:34:01.487Z,92.99
2018-12-15T04:36:28.869Z,92.93
2018-12-15T04:38:56.338Z,93.79
2018-12-15T04:41:23.724Z,93.92
2018-12-15T04:43:51.318Z,93.85
2018-12-15T04:46:18.702Z,94.52
2018-12-15T04:48:46.163Z,93.92
2018-12-15T04:51:13.622Z,93.73
2018-12-15T04:53:41.047Z,94.47
2018-12-15T04:56:08.439Z,93.95
2018-12-15T04:58:35.838Z,94.36
2018-12-15T05:01:03.218Z,94.70
2018-12-15T05:03:30.598Z,94.38
2018-12-15T05:05:57.995Z,94.48
2018-12-15T05:08:25.381Z,94.56
2018-12-15T05:10:52.775Z,94.46
2018-12-15T05:13:20.162Z,94.50
2018-12-15T05:15:47.560Z,94.43
2018-12-15T05:18:18.138Z,94.03
2018-12-15T05:20:44.320Z,95.14
2018-12-15T05:23:11.722Z,94.91
2018-12-15T05:25:39.107Z,95.87
2018-12-15T05:28:06.492Z,95.33
2018-12-15T05:30:33.866Z,96.69
2018-12-15T05:33:01.257Z,96.42
2018-12-15T05:35:28.881Z,96.16
2018-12-15T05:37:56.359Z,96.50
2018-12-15T05:40:23.826Z,97.76
2018-12-15T05:42:51.202Z,97.81
2018-12-15T05:45:18.676Z,96.69
2018-12-15T05:47:46.058Z,96.78
2018-12-15T05:50:13.478Z,97.49
2018-12-15T05:52:40.854Z,97.71
2018-12-15T05:55:08.235Z,97.92
2018-12-15T05:57:35.626Z,97.77
2018-12-15T06:00:04.715Z,97.85
2018-12-15T06:02:32.417Z,97.88
2018-12-15T06:04:59.918Z,98.07
2018-12-15T06:07:27.310Z,98.14
2018-12-15T06:09:54.699Z,98.25
2018-12-15T06:12:22.085Z,98.65
2018-12-15T06:14:49.461Z,98.65
2018-12-15T06:17:16.868Z,98.03
2018-12-15T06:19:44.242Z,98.16
2018-12-15T06:22:11.626Z,98.16
2018-12-15T06:24:39.100Z,98.68
2018-12-15T06:27:06.488Z,99.58
2018-12-15T06:29:33.870Z,99.23
2018-12-15T06:32:01.241Z,99.49
2018-12-15T06:34:28.629Z,99.18
2018-12-15T06:36:56.013Z,99.13
2018-12-15T06:39:23.424Z,99.05
2018-12-15T06:41:50.886Z,99.65
2018-12-15T06:44:18.268Z,99.14
2018-12-15T06:46:45.650Z,99.25
2018-12-15T06:49:13.117Z,99.04
2018-12-15T06:51:40.595Z,99.13
2018-12-15T06:54:08.639Z,99.28
2018-12-15T06:56:36.052Z,98.89
2018-12-15T06:59:03.475Z,99.36
2018-12-15T07:01:30.881Z,98.63
2018-12-15T07:03:58.274Z,98.69
2018-12-15T07:06:25.690Z,98.59
2018-12-15T07:08:53.081Z,99.35
2018-12-15T07:11:20.457Z,99.70
2018-12-15T07:13:47.867Z,99.47
2018-12-15T07:16:15.252Z,99.92
2018-12-15T07:18:44.970Z,99.84
2018-12-15T07:21:12.092Z,99.61
2018-12-15T07:23:39.927Z,99.35
2018-12-15T07:26:07.350Z,99.40
2018-12-15T07:28:34.730Z,99.19
2018-12-15T07:31:02.113Z,99.41
2018-12-15T07:33:29.506Z,99.60
2018-12-15T07:35:56.908Z,99.22
2018-12-15T07:38:24.305Z,99.15
2018-12-15T07:40:51.714Z,99.58
2018-12-15T07:43:19.094Z,99.76
2018-12-15T07:45:46.475Z,99.11
2018-12-15T07:48:13.933Z,99.39
2018-12-15T07:50:41.334Z,99.67
2018-12-15T07:53:08.742Z,99.57
2018-12-15T07:55:36.121Z,99.22
2018-12-15T07:58:03.554Z,99.32
2018-12-15T08:00:30.950Z,99.37
2018-12-15T08:02:58.335Z,99.08
2018-12-15T08:05:25.727Z,99.00
2018-12-15T08:07:53.106Z,99.16
2018-12-15T08:10:23.621Z,99.55
2018-12-15T08:13:02.513Z,99.07
2018-12-15T08:15:30.096Z,99.54
2018-12-15T08:17:57.581Z,99.18
2018-12-15T08:20:24.962Z,98.76
2018-12-15T08:22:52.349Z,98.81
2018-12-15T08:25:19.745Z,98.76
2018-12-15T08:27:47.145Z,99.01
2018-12-15T08:30:14.537Z,99.05
2018-12-15T08:32:41.925Z,98.79
2018-12-15T08:35:09.325Z,99.41
2018-12-15T08:37:36.783Z,99.22
2018-12-15T08:40:04.581Z,99.03
2018-12-15T08:42:31.967Z,99.29
2018-12-15T08:44:59.363Z,98.56
2018-12-15T08:47:26.756Z,98.87
2018-12-15T08:49:54.130Z,99.30
2018-12-15T08:52:21.619Z,98.81
2018-12-15T08:54:49.013Z,98.55
2018-12-15T08:57:19.257Z,99.12
2018-12-15T08:59:46.675Z,98.90
2018-12-15T09:02:14.071Z,98.25
2018-12-15T09:04:41.526Z,97.93
2018-12-15T09:07:09.085Z,97.89
2018-12-15T09:09:36.492Z,97.49
2018-12-15T09:12:03.896Z,98.04
2018-12-15T09:14:31.293Z,97.53
2018-12-15T09:16:58.670Z,97.14
2018-12-15T09:19:26.070Z,97.70
2018-12-15T09:21:53.469Z,97.59
2018-12-15T09:24:21.266Z,98.49
2018-12-15T09:26:49.578Z,97.98
2018-12-15T09:29:16.975Z,97.41
2018-12-15T09:31:44.366Z,96.92
2018-12-15T09:34:11.853Z,96.96
2018-12-15T09:36:39.252Z,96.65
2018-12-15T09:39:07.353Z,96.00
2018-12-15T09:41:34.827Z,96.44
2018-12-15T09:44:02.224Z,96.61
2018-12-15T09:46:29.606Z,96.61
2018-12-15T09:48:57.010Z,95.81
2018-12-15T09:51:24.390Z,96.27
2018-12-15T09:53:51.813Z,96.20
2018-12-15T09:56:19.248Z,95.49
2018-12-15T09:58:46.668Z,96.42
2018-12-15T10:01:14.059Z,95.96
2018-12-15T10:03:41.714Z,95.28
2018-12-15T10:06:09.128Z,96.17
2018-12-15T10:08:36.619Z,96.64
2018-12-15T10:11:06.517Z,96.04
2018-12-15T10:13:36.059Z,95.41
2018-12-15T10:16:03.890Z,95.75
2018-12-15T10:18:31.293Z,95.65
2018-12-15T10:20:58.697Z,95.42
2018-12-15T10:23:26.093Z,94.61
2018-12-15T10:25:53.485Z,94.84
2018-12-15T10:28:20.889Z,93.69
2018-12-15T10:30:54.006Z,93.73
2018-12-15T10:33:21.374Z,94.67
2018-12-15T10:35:48.822Z,93.88
2018-12-15T10:38:16.227Z,94.65
2018-12-15T10:40:43.616Z,93.04
2018-12-15T10:43:10.999Z,93.36
2018-12-15T10:45:38.469Z,93.46
2018-12-15T10:48:05.872Z,94.07
2018-12-15T10:50:33.272Z,93.84
2018-12-15T10:53:00.657Z,93.89
2018-12-15T10:55:28.072Z,93.80
2018-12-15T10:57:55.528Z,93.95
2018-12-15T11:00:26.574Z,93.72
2018-12-15T11:02:54.189Z,94.08
2018-12-15T11:05:21.634Z,93.92
2018-12-15T11:07:49.014Z,93.77
2018-12-15T11:10:16.395Z,93.03
2018-12-15T11:12:43.817Z,92.13
2018-12-15T11:15:11.209Z,91.19
2018-12-15T11:17:39.537Z,91.94
2018-12-15T11:20:07.033Z,91.63
2018-12-15T11:22:34.414Z,91.01
2018-12-15T11:25:01.787Z,91.42
2018-12-15T11:27:29.193Z,90.16
2018-12-15T11:29:56.585Z,89.83
2018-12-15T11:32:23.957Z,90.55
2018-12-15T11:34:51.353Z,90.16
2018-12-15T11:37:18.737Z,88.41
2018-12-15T11:39:46.111Z,88.41
2018-12-15T11:42:13.502Z,88.99
2018-12-15T11:44:40.884Z,88.95
2018-12-15T11:47:08.293Z,88.94
2018-12-15T11:49:35.799Z,88.84
2018-12-15T11:52:03.186Z,88.21
2018-12-15T11:54:30.632Z,86.45
2018-12-15T11:56:58.075Z,87.35
2018-12-15T11:59:25.538Z,86.53
2018-12-15T12:01:53.176Z,87.19
2018-12-15T12:04:20.689Z,86.95
2018-12-15T12:06:48.095Z,85.78
2018-12-15T12:09:15.495Z,86.67
2018-12-15T12:11:42.957Z,87.38
2018-12-15T12:14:10.346Z,86.93
2018-12-15T12:16:37.734Z,85.89
2018-12-15T12:19:05.149Z,86.57
2018-12-15T12:21:32.621Z,86.73
2018-12-15T12:24:00.092Z,86.85
2018-12-15T12:26:27.481Z,87.26
2018-12-15T12:28:54.897Z,85.85
2018-12-15T12:31:22.278Z,85.77
2018-12-15T12:33:49.659Z,85.96
2018-12-15T12:36:17.062Z,85.11
2018-12-15T12:38:44.438Z,86.91
2018-12-15T12:41:11.829Z,85.59
2018-12-15T12:43:40.023Z,85.99
2018-12-15T12:46:07.422Z,85.71
2018-12-15T12:48:34.990Z,84.47
2018-12-15T12:51:02.377Z,85.99
2018-12-15T12:53:29.757Z,85.04
2018-12-15T12:55:57.218Z,84.68
2018-12-15T12:58:24.630Z,83.85
2018-12-15T13:00:52.033Z,84.64
2018-12-15T13:03:19.477Z,85.10
2018-12-15T13:05:46.905Z,85.14
2018-12-15T13:08:14.277Z,85.79
2018-12-15T13:10:41.734Z,83.33
2018-12-15T13:13:09.101Z,80.92
2018-12-15T13:15:36.490Z,81.43
2018-12-15T13:18:03.873Z,80.52
2018-12-15T13:20:31.259Z,80.99
2018-12-15T13:22:58.643Z,79.63
2018-12-15T13:25:26.024Z,79.83
2018-12-15T13:27:53.418Z,80.49
2018-12-15T13:30:20.803Z,79.85
2018-12-15T13:32:48.165Z,78.90
2018-12-15T13:35:15.553Z,78.96
2018-12-15T13:37:42.918Z,79.08
2018-12-15T13:40:10.612Z,79.95
2018-12-15T13:42:37.973Z,77.77
2018-12-15T13:45:05.565Z,77.88
2018-12-15T13:47:32.946Z,77.92
2018-12-15T13:50:00.325Z,78.26
2018-12-15T13:52:27.693Z,78.69
2018-12-15T13:54:55.071Z,78.25
2018-12-15T13:57:22.463Z,78.15
2018-12-15T13:59:49.842Z,79.05
2018-12-15T14:02:17.223Z,77.23
2018-12-15T14:04:44.595Z,76.73
2018-12-15T14:07:11.971Z,77.62
2018-12-15T14:09:39.357Z,78.56
2018-12-15T14:12:07.161Z,78.50
2018-12-15T14:14:34.545Z,79.12
2018-12-15T14:17:01.922Z,78.44
2018-12-15T14:19:29.293Z,78.99
2018-12-15T14:21:56.689Z,78.94
2018-12-15T14:24:24.073Z,79.48
2018-12-15T14:26:51.455Z,79.00
2018-12-15T14:29:18.847Z,78.41
2018-12-15T14:31:46.310Z,78.62
2018-12-15T14:34:13.685Z,79.73
2018-12-15T14:36:41.078Z,78.89
2018-12-15T14:39:08.454Z,79.50
2018-12-15T14:41:35.839Z,78.82
2018-12-15T14:44:03.241Z,79.54
2018-12-15T14:46:30.627Z,78.74
2018-12-15T14:48:58.008Z,78.98
2018-12-15T14:51:25.388Z,78.86
2018-12-15T14:53:52.757Z,78.43
2018-12-15T14:56:20.142Z,79.14
2018-12-15T14:58:47.613Z,79.12
2018-12-15T15:01:15.014Z,77.77
2018-12-15T15:03:42.892Z,78.77
2018-12-15T15:06:10.270Z,78.84
2018-12-15T15:08:37.670Z,78.69
2018-12-15T15:11:05.067Z,79.27
2018-12-15T15:13:34.652Z,78.78
2018-12-15T15:16:01.813Z,79.14
2018-12-15T15:18:29.212Z,78.55
2018-12-15T15:20:56.582Z,78.30
2018-12-15T15:23:23.963Z,79.09
2018-12-15T15:25:51.365Z,79.00
2018-12-15T15:28:18.762Z,79.20
2018-12-15T15:30:46.137Z,79.02
2018-12-15T15:33:13.521Z,80.37
2018-12-15T15:35:40.924Z,80.41
2018-12-15T15:38:08.325Z,80.03
2018-12-15T15:40:35.709Z,80.33
2018-12-15T15:43:03.152Z,80.72
2018-12-15T15:45:30.557Z,80.89
2018-12-15T15:47:58.026Z,81.54
2018-12-15T15:50:25.406Z,80.21
2018-12-15T15:52:52.793Z,80.83
2018-12-15T15:55:20.183Z,81.89
2018-12-15T15:57:47.586Z,81.58
2018-12-15T16:00:14.970Z,81.65
2018-12-15T16:02:42.352Z,81.94
2018-12-15T16:05:09.813Z,82.24
2018-12-15T16:07:37.190Z,82.56
2018-12-15T16:10:07.374Z,82.36
2018-12-15T16:12:34.780Z,82.92
2018-12-15T16:15:02.180Z,83.58
2018-12-15T16:17:29.649Z,83.36
2018-12-15T16:19:57.042Z,83.71
2018-12-15T16:22:24.440Z,83.40
2018-12-15T16:24:51.848Z,83.24
2018-12-15T16:27:19.257Z,83.78
2018-12-15T16:29:46.651Z,84.37
2018-12-15T16:32:14.131Z,84.50
2018-12-15T16:34:41.639Z,84.45
2018-12-15T16:37:10.453Z,84.87
2018-12-15T16:39:37.973Z,84.88
2018-12-15T16:42:05.365Z,84.82
2018-12-15T16:44:32.943Z,85.55
2018-12-15T16:47:00.343Z,85.83
2018-12-15T16:49:27.722Z,85.80
2018-12-15T16:51:55.143Z,86.08
2018-12-15T16:54:22.547Z,86.49
2018-12-15T16:56:49.934Z,86.04
2018-12-15T16:59:17.345Z,86.59
2018-12-15T17:01:44.742Z,86.38
2018-12-15T17:04:12.124Z,86.79
2018-12-15T17:06:39.535Z,86.98
2018-12-15T17:09:08.005Z,87.15
2018-12-15T17:11:35.394Z,87.59
2018-12-15T17:14:02.903Z,87.60
2018-12-15T17:16:30.366Z,87.27
2018-12-15T17:18:57.745Z,87.60
2018-12-15T17:21:25.117Z,87.74
2018-12-15T17:23:52.497Z,89.04
2018-12-15T17:26:19.890Z,88.11
2018-12-15T17:28:47.285Z,88.45
2018-12-15T17:31:14.665Z,88.88
2018-12-15T17:33:42.050Z,88.88
2018-12-15T17:36:09.441Z,88.64
2018-12-15T17:38:36.864Z,88.99
2018-12-15T17:41:04.269Z,89.07
2018-12-15T17:43:31.657Z,89.13
2018-12-15T17:45:59.033Z,89.27
2018-12-15T17:48:26.414Z,89.23
2018-12-15T17:50:53.805Z,89.22
2018-12-15T17:53:21.177Z,90.20
2018-12-15T17:55:48.571Z,89.76
2018-12-15T17:58:15.960Z,88.97
2018-12-15T18:00:43.326Z,88.76
2018-12-15T18:03:10.732Z,89.60
2018-12-15T18:05:38.126Z,89.05
2018-12-15T18:08:05.561Z,88.40
2018-12-15T18:10:32.946Z,88.08
2018-12-15T18:13:00.326Z,88.45
2018-12-15T18:15:27.697Z,88.79
2018-12-15T18:17:55.090Z,88.58
2018-12-15T18:20:22.477Z,88.64
2018-12-15T18:22:49.871Z,89.29
2018-12-15T18:25:17.264Z,89.04
2018-12-15T18:27:44.702Z,88.86
2018-12-15T18:30:12.142Z,88.84
2018-12-15T18:32:39.629Z,88.96
2018-12-15T18:35:07.014Z,88.67
2018-12-15T18:37:34.397Z,88.26
2018-12-15T18:40:01.791Z,88.65
2018-12-15T18:42:29.268Z,88.48
2018-12-15T18:44:56.636Z,88.18
2018-12-15T18:47:24.016Z,88.17
2018-12-15T18:49:51.402Z,89.06
2018-12-15T18:52:18.798Z,88.57
2018-12-15T18:54:46.200Z,88.89
2018-12-15T18:57:13.600Z,89.19
2018-12-15T18:59:40.984Z,88.74
2018-12-15T19:02:08.459Z,88.97
2018-12-15T19:04:35.848Z,89.18
2018-12-15T19:07:03.241Z,89.38
2018-12-15T19:09:30.625Z,89.61
2018-12-15T19:11:58.009Z,90.18
2018-12-15T19:14:25.412Z,90.29
2018-12-15T19:16:52.865Z,89.29
2018-12-15T19:19:20.285Z,89.35
2018-12-15T19:21:47.663Z,89.69
2018-12-15T19:24:15.045Z,89.72
2018-12-15T19:26:42.448Z,88.99
2018-12-15T19:29:09.831Z,89.52
2018-12-15T19:31:37.211Z,89.21
2018-12-15T19:34:04.590Z,89.30
2018-12-15T19:36:31.992Z,89.44
2018-12-15T19:38:59.384Z,88.97
2018-12-15T19:41:26.857Z,88.98
2018-12-15T19:43:54.242Z,88.68
2018-12-15T19:46:21.638Z,89.04
2018-12-15T19:48:49.034Z,89.92
2018-12-15T19:51:16.410Z,89.17
2018-12-15T19:53:43.789Z,88.60
2018-12-15T19:56:11.182Z,88.38
2018-12-15T19:58:38.564Z,89.07
2018-12-15T20:01:05.946Z,88.73
2018-12-15T20:03:33.327Z,88.77
2018-12-15T20:06:00.721Z,88.37
2018-12-15T20:08:28.118Z,87.62
2018-12-15T20:10:55.493Z,87.43
2018-12-15T20:13:22.880Z,87.73
2018-12-15T20:15:50.341Z,87.73
2018-12-15T20:18:17.739Z,86.81
2018-12-15T20:20:45.132Z,86.81
2018-12-15T20:23:13.334Z,87.16
2018-12-15T20:25:40.743Z,86.68
2018-12-15T20:28:08.161Z,86.37
2018-12-15T20:30:35.538Z,87.00
2018-12-15T20:33:02.948Z,86.51
2018-12-15T20:35:30.403Z,86.38
2018-12-15T20:37:57.781Z,87.27
2018-12-15T20:40:25.162Z,86.95
2018-12-15T20:42:52.542Z,86.91
2018-12-15T20:45:20.006Z,87.14
2018-12-15T20:47:47.406Z,86.26
2018-12-15T20:50:14.858Z,87.11
2018-12-15T20:52:47.570Z,86.45
2018-12-15T20:55:11.661Z,86.46
2018-12-15T20:57:39.155Z,86.48
2018-12-15T21:00:08.425Z,86.68
2018-12-15T21:02:35.821Z,86.98
2018-12-15T21:05:03.900Z,86.92
2018-12-15T21:07:31.361Z,87.35
2018-12-15T21:09:58.838Z,87.50
2018-12-15T21:12:26.221Z,86.98
2018-12-15T21:14:53.898Z,87.58
2018-12-15T21:17:21.416Z,87.46
2018-12-15T21:19:48.808Z,86.67
2018-12-15T21:22:16.179Z,86.44
2018-12-15T21:24:43.574Z,87.57
2018-12-15T21:27:10.960Z,87.30
2018-12-15T21:29:38.335Z,87.45
2018-12-15T21:32:05.726Z,87.67
2018-12-15T21:34:33.114Z,87.73
2018-12-15T21:37:00.492Z,87.27
2018-12-15T21:39:27.860Z,87.48
2018-12-15T21:41:55.328Z,87.65
2018-12-15T21:44:22.736Z,87.65
2018-12-15T21:46:50.126Z,88.10
2018-12-15T21:49:17.510Z,87.92
2018-12-15T21:51:44.898Z,87.84
2018-12-15T21:54:12.290Z,88.23
2018-12-15T21:56:39.674Z,88.33
2018-12-15T21:59:07.058Z,87.97
2018-12-15T22:01:34.469Z,88.67
2018-12-15T22:04:01.858Z,88.93
2018-12-15T22:06:29.240Z,89.40
2018-12-15T22:08:56.609Z,89.26
2018-12-15T22:11:24.007Z,89.28
2018-12-15T22:13:51.399Z,88.94
2018-12-15T22:16:18.785Z,89.86
2018-12-15T22:18:46.189Z,89.40
2018-12-15T22:21:13.587Z,90.08
2018-12-15T22:23:40.977Z,90.73
2018-12-15T22:26:08.365Z,91.18
2018-12-15T22:28:35.758Z,91.03
2018-12-15T22:31:03.145Z,91.80
2018-12-15T22:33:30.536Z,92.12
2018-12-15T22:35:57.929Z,92.15
2018-12-15T22:38:25.313Z,92.56
2018-12-15T22:40:52.726Z,92.59
2018-12-15T22:43:20.117Z,92.74
2018-12-15T22:45:47.528Z,93.08
2018-12-15T22:48:14.928Z,93.16
2018-12-15T22:50:42.314Z,92.96
2018-12-15T22:53:09.694Z,93.76
2018-12-15T22:55:37.112Z,94.03
2018-12-15T22:58:04.492Z,94.04
2018-12-15T23:00:33.790Z,94.73
2018-12-15T23:03:01.183Z,94.55
2018-12-15T23:05:28.566Z,95.04
2018-12-15T23:07:55.962Z,95.67
2018-12-15T23:10:23.362Z,95.89
2018-12-15T23:12:50.765Z,96.26
2018-12-15T23:15:18.152Z,96.30
2018-12-15T23:17:45.542Z,96.26
2018-12-15T23:20:12.938Z,96.11
2018-12-15T23:22:40.325Z,96.92
2018-12-15T23:25:07.726Z,96.61
2018-12-15T23:27:35.117Z,96.79
2018-12-15T23:30:02.588Z,96.83
2018-12-15T23:32:29.973Z,97.36
2018-12-15T23:34:57.385Z,97.12
2018-12-15T23:37:24.765Z,97.27
2018-12-15T23:39:52.158Z,97.01
2018-12-15T23:42:19.542Z,97.84
2018-12-15T23:44:47.015Z,97.95
2018-12-15T23:47:14.410Z,97.90
2018-12-15T23:49:41.814Z,97.92
2018-12-15T23:52:09.190Z,98.46
2018-12-15T23:54:36.612Z,98.30
2018-12-15T23:57:04.019Z,98.90
2018-12-15T23:59:31.420Z,98.77
